sensor_id;sensor_type;location;lat;lon;timestamp;P1;durP1;ratioP1;P2;durP2;ratioP2
34565;SDS011;20803;42.676;26.348;2022-07-29T00:01:34;5.37;;;3.20;;
34565;SDS011;20803;42.676;26.348;2022-07-29T00:04:00;3.03;;;2.83;;
34565;SDS011;20803;42.676;26.348;2022-07-29T00:06:25;4.47;;;3.00;;
34565;SDS011;20803;42.676;26.348;2022-07-29T00:08:50;2.93;;;2.63;;
34565;SDS011;20803;42.676;26.348;2022-07-29T00:11:16;3.40;;;2.67;;
34565;SDS011;20803;42.676;26.348;2022-07-29T00:13:41;3.10;;;2.80;;
34565;SDS011;20803;42.676;26.348;2022-07-29T00:16:07;6.37;;;2.87;;
34565;SDS011;20803;42.676;26.348;2022-07-29T00:18:32;3.10;;;2.70;;
34565;SDS011;20803;42.676;26.348;2022-07-29T00:20:57;3.67;;;2.80;;
34565;SDS011;20803;42.676;26.348;2022-07-29T00:23:23;3.00;;;2.70;;
34565;SDS011;20803;42.676;26.348;2022-07-29T00:25:48;5.03;;;2.77;;
34565;SDS011;20803;42.676;26.348;2022-07-29T00:28:14;3.33;;;2.80;;
34565;SDS011;20803;42.676;26.348;2022-07-29T00:30:39;4.33;;;3.03;;
34565;SDS011;20803;42.676;26.348;2022-07-29T00:33:07;4.30;;;3.03;;
34565;SDS011;20803;42.676;26.348;2022-07-29T00:35:33;3.60;;;2.63;;
34565;SDS011;20803;42.676;26.348;2022-07-29T00:38:12;4.03;;;3.10;;
34565;SDS011;20803;42.676;26.348;2022-07-29T00:40:38;6.17;;;2.90;;
34565;SDS011;20803;42.676;26.348;2022-07-29T00:43:04;3.90;;;2.90;;
34565;SDS011;20803;42.676;26.348;2022-07-29T00:45:30;4.10;;;3.00;;
34565;SDS011;20803;42.676;26.348;2022-07-29T00:47:55;3.40;;;2.83;;
34565;SDS011;20803;42.676;26.348;2022-07-29T00:50:21;3.47;;;2.97;;
34565;SDS011;20803;42.676;26.348;2022-07-29T00:52:48;4.67;;;2.70;;
34565;SDS011;20803;42.676;26.348;2022-07-29T00:55:14;4.90;;;2.93;;
34565;SDS011;20803;42.676;26.348;2022-07-29T00:57:41;3.37;;;3.07;;
34565;SDS011;20803;42.676;26.348;2022-07-29T01:00:09;3.40;;;3.10;;
34565;SDS011;20803;42.676;26.348;2022-07-29T01:02:37;4.67;;;2.80;;
34565;SDS011;20803;42.676;26.348;2022-07-29T01:05:03;4.43;;;3.17;;
34565;SDS011;20803;42.676;26.348;2022-07-29T01:07:31;3.20;;;2.90;;
34565;SDS011;20803;42.676;26.348;2022-07-29T01:09:59;3.17;;;2.87;;
34565;SDS011;20803;42.676;26.348;2022-07-29T01:12:28;4.93;;;3.03;;
34565;SDS011;20803;42.676;26.348;2022-07-29T01:14:58;5.00;;;3.13;;
34565;SDS011;20803;42.676;26.348;2022-07-29T01:22:35;4.30;;;3.07;;
34565;SDS011;20803;42.676;26.348;2022-07-29T01:31:24;3.00;;;2.70;;
34565;SDS011;20803;42.676;26.348;2022-07-29T01:33:57;7.90;;;3.30;;
34565;SDS011;20803;42.676;26.348;2022-07-29T01:36:33;3.77;;;2.80;;
34565;SDS011;20803;42.676;26.348;2022-07-29T01:39:14;4.33;;;3.00;;
34565;SDS011;20803;42.676;26.348;2022-07-29T01:41:59;6.23;;;3.10;;
34565;SDS011;20803;42.676;26.348;2022-07-29T01:44:40;3.97;;;3.07;;
34565;SDS011;20803;42.676;26.348;2022-07-29T01:47:12;4.40;;;3.00;;
34565;SDS011;20803;42.676;26.348;2022-07-29T01:49:43;3.50;;;3.00;;
34565;SDS011;20803;42.676;26.348;2022-07-29T01:52:19;5.43;;;2.60;;
34565;SDS011;20803;42.676;26.348;2022-07-29T01:54:50;11.13;;;3.63;;
34565;SDS011;20803;42.676;26.348;2022-07-29T01:57:20;6.37;;;3.10;;
34565;SDS011;20803;42.676;26.348;2022-07-29T01:59:50;3.50;;;2.67;;
34565;SDS011;20803;42.676;26.348;2022-07-29T02:02:17;3.03;;;2.83;;
34565;SDS011;20803;42.676;26.348;2022-07-29T02:04:44;3.30;;;3.00;;
34565;SDS011;20803;42.676;26.348;2022-07-29T02:07:13;3.00;;;2.70;;
34565;SDS011;20803;42.676;26.348;2022-07-29T02:09:43;5.73;;;2.63;;
34565;SDS011;20803;42.676;26.348;2022-07-29T02:12:10;4.23;;;2.80;;
34565;SDS011;20803;42.676;26.348;2022-07-29T02:14:38;3.47;;;2.70;;
34565;SDS011;20803;42.676;26.348;2022-07-29T02:17:07;3.93;;;3.30;;
34565;SDS011;20803;42.676;26.348;2022-07-29T02:19:33;3.60;;;2.80;;
34565;SDS011;20803;42.676;26.348;2022-07-29T02:22:01;3.53;;;2.87;;
34565;SDS011;20803;42.676;26.348;2022-07-29T02:24:27;4.53;;;2.80;;
34565;SDS011;20803;42.676;26.348;2022-07-29T02:26:55;3.87;;;2.90;;
34565;SDS011;20803;42.676;26.348;2022-07-29T02:29:25;3.97;;;3.10;;
34565;SDS011;20803;42.676;26.348;2022-07-29T02:31:53;3.63;;;2.77;;
34565;SDS011;20803;42.676;26.348;2022-07-29T02:34:22;3.37;;;3.07;;
34565;SDS011;20803;42.676;26.348;2022-07-29T02:36:49;3.20;;;2.90;;
34565;SDS011;20803;42.676;26.348;2022-07-29T02:39:16;9.40;;;3.10;;
34565;SDS011;20803;42.676;26.348;2022-07-29T02:44:13;4.40;;;2.73;;
34565;SDS011;20803;42.676;26.348;2022-07-29T02:47:04;4.10;;;3.63;;
34565;SDS011;20803;42.676;26.348;2022-07-29T02:49:39;3.33;;;2.93;;
34565;SDS011;20803;42.676;26.348;2022-07-29T02:52:15;3.43;;;3.10;;
34565;SDS011;20803;42.676;26.348;2022-07-29T02:54:56;4.57;;;3.20;;
34565;SDS011;20803;42.676;26.348;2022-07-29T03:00:11;4.23;;;3.03;;
34565;SDS011;20803;42.676;26.348;2022-07-29T03:02:42;7.60;;;3.40;;
34565;SDS011;20803;42.676;26.348;2022-07-29T03:05:11;4.50;;;3.20;;
34565;SDS011;20803;42.676;26.348;2022-07-29T03:07:41;5.17;;;3.20;;
34565;SDS011;20803;42.676;26.348;2022-07-29T03:10:10;5.07;;;3.60;;
34565;SDS011;20803;42.676;26.348;2022-07-29T03:12:36;3.17;;;2.87;;
34565;SDS011;20803;42.676;26.348;2022-07-29T03:15:02;7.57;;;3.17;;
34565;SDS011;20803;42.676;26.348;2022-07-29T03:17:28;5.40;;;3.63;;
34565;SDS011;20803;42.676;26.348;2022-07-29T03:19:56;6.90;;;3.77;;
34565;SDS011;20803;42.676;26.348;2022-07-29T03:22:22;10.53;;;3.63;;
34565;SDS011;20803;42.676;26.348;2022-07-29T03:24:49;7.97;;;3.60;;
34565;SDS011;20803;42.676;26.348;2022-07-29T03:27:14;3.93;;;3.50;;
34565;SDS011;20803;42.676;26.348;2022-07-29T03:29:40;4.20;;;3.67;;
34565;SDS011;20803;42.676;26.348;2022-07-29T03:32:05;4.53;;;3.57;;
34565;SDS011;20803;42.676;26.348;2022-07-29T03:34:31;4.67;;;3.40;;
34565;SDS011;20803;42.676;26.348;2022-07-29T03:36:57;3.80;;;3.40;;
34565;SDS011;20803;42.676;26.348;2022-07-29T03:39:23;4.53;;;3.33;;
34565;SDS011;20803;42.676;26.348;2022-07-29T03:41:53;7.40;;;3.23;;
34565;SDS011;20803;42.676;26.348;2022-07-29T03:44:21;6.40;;;3.57;;
34565;SDS011;20803;42.676;26.348;2022-07-29T03:46:49;4.80;;;3.30;;
34565;SDS011;20803;42.676;26.348;2022-07-29T03:49:17;4.93;;;3.20;;
34565;SDS011;20803;42.676;26.348;2022-07-29T03:51:45;4.03;;;2.90;;
34565;SDS011;20803;42.676;26.348;2022-07-29T03:54:11;4.10;;;3.57;;
34565;SDS011;20803;42.676;26.348;2022-07-29T03:56:38;6.50;;;3.10;;
34565;SDS011;20803;42.676;26.348;2022-07-29T03:59:07;4.80;;;3.40;;
34565;SDS011;20803;42.676;26.348;2022-07-29T04:01:33;5.57;;;3.60;;
34565;SDS011;20803;42.676;26.348;2022-07-29T04:04:00;5.30;;;3.60;;
34565;SDS011;20803;42.676;26.348;2022-07-29T04:06:26;3.73;;;3.17;;
34565;SDS011;20803;42.676;26.348;2022-07-29T04:08:52;3.60;;;3.30;;
34565;SDS011;20803;42.676;26.348;2022-07-29T04:11:17;3.90;;;3.40;;
34565;SDS011;20803;42.676;26.348;2022-07-29T04:13:43;6.23;;;3.17;;
34565;SDS011;20803;42.676;26.348;2022-07-29T04:16:09;3.97;;;3.43;;
34565;SDS011;20803;42.676;26.348;2022-07-29T04:18:34;12.20;;;4.13;;
34565;SDS011;20803;42.676;26.348;2022-07-29T04:21:00;12.67;;;3.73;;
34565;SDS011;20803;42.676;26.348;2022-07-29T04:23:26;5.57;;;3.53;;
34565;SDS011;20803;42.676;26.348;2022-07-29T04:25:52;4.37;;;3.63;;
34565;SDS011;20803;42.676;26.348;2022-07-29T04:28:18;3.60;;;3.20;;
34565;SDS011;20803;42.676;26.348;2022-07-29T04:30:43;4.10;;;3.10;;
34565;SDS011;20803;42.676;26.348;2022-07-29T04:33:08;25.77;;;4.53;;
34565;SDS011;20803;42.676;26.348;2022-07-29T04:35:35;3.80;;;3.37;;
34565;SDS011;20803;42.676;26.348;2022-07-29T04:38:02;10.93;;;3.37;;
34565;SDS011;20803;42.676;26.348;2022-07-29T04:40:28;4.63;;;3.67;;
34565;SDS011;20803;42.676;26.348;2022-07-29T04:42:54;4.03;;;2.90;;
34565;SDS011;20803;42.676;26.348;2022-07-29T04:45:19;6.20;;;3.50;;
34565;SDS011;20803;42.676;26.348;2022-07-29T04:47:45;4.43;;;3.47;;
34565;SDS011;20803;42.676;26.348;2022-07-29T04:50:10;7.70;;;3.50;;
34565;SDS011;20803;42.676;26.348;2022-07-29T04:52:36;6.13;;;3.60;;
34565;SDS011;20803;42.676;26.348;2022-07-29T04:55:05;6.00;;;3.30;;
34565;SDS011;20803;42.676;26.348;2022-07-29T04:57:31;6.80;;;3.17;;
34565;SDS011;20803;42.676;26.348;2022-07-29T04:59:56;8.20;;;3.73;;
34565;SDS011;20803;42.676;26.348;2022-07-29T05:02:22;9.37;;;3.43;;
34565;SDS011;20803;42.676;26.348;2022-07-29T05:04:47;3.90;;;3.50;;
34565;SDS011;20803;42.676;26.348;2022-07-29T05:07:13;3.80;;;3.40;;
34565;SDS011;20803;42.676;26.348;2022-07-29T05:09:39;4.50;;;3.93;;
34565;SDS011;20803;42.676;26.348;2022-07-29T05:12:04;6.10;;;4.20;;
34565;SDS011;20803;42.676;26.348;2022-07-29T05:14:30;4.30;;;3.40;;
34565;SDS011;20803;42.676;26.348;2022-07-29T05:16:56;3.90;;;3.03;;
34565;SDS011;20803;42.676;26.348;2022-07-29T05:19:22;5.57;;;3.70;;
34565;SDS011;20803;42.676;26.348;2022-07-29T05:21:48;8.03;;;3.53;;
34565;SDS011;20803;42.676;26.348;2022-07-29T05:24:13;6.80;;;4.70;;
34565;SDS011;20803;42.676;26.348;2022-07-29T05:26:39;6.10;;;3.97;;
34565;SDS011;20803;42.676;26.348;2022-07-29T05:29:05;10.03;;;3.80;;
34565;SDS011;20803;42.676;26.348;2022-07-29T05:31:31;5.87;;;4.00;;
34565;SDS011;20803;42.676;26.348;2022-07-29T05:33:56;6.83;;;4.00;;
34565;SDS011;20803;42.676;26.348;2022-07-29T05:36:21;17.23;;;4.27;;
34565;SDS011;20803;42.676;26.348;2022-07-29T05:38:47;4.77;;;3.47;;
34565;SDS011;20803;42.676;26.348;2022-07-29T05:41:12;4.73;;;4.00;;
34565;SDS011;20803;42.676;26.348;2022-07-29T05:43:38;5.53;;;3.30;;
34565;SDS011;20803;42.676;26.348;2022-07-29T05:46:03;4.37;;;3.53;;
34565;SDS011;20803;42.676;26.348;2022-07-29T05:48:28;6.57;;;3.47;;
34565;SDS011;20803;42.676;26.348;2022-07-29T05:50:54;6.43;;;3.60;;
34565;SDS011;20803;42.676;26.348;2022-07-29T05:53:19;5.43;;;3.27;;
34565;SDS011;20803;42.676;26.348;2022-07-29T05:55:45;5.77;;;3.63;;
34565;SDS011;20803;42.676;26.348;2022-07-29T05:58:10;4.87;;;3.93;;
34565;SDS011;20803;42.676;26.348;2022-07-29T06:00:36;6.57;;;4.40;;
34565;SDS011;20803;42.676;26.348;2022-07-29T06:03:01;9.13;;;4.17;;
34565;SDS011;20803;42.676;26.348;2022-07-29T06:05:27;6.97;;;4.57;;
34565;SDS011;20803;42.676;26.348;2022-07-29T06:07:52;6.70;;;4.73;;
34565;SDS011;20803;42.676;26.348;2022-07-29T06:10:18;14.67;;;5.73;;
34565;SDS011;20803;42.676;26.348;2022-07-29T06:12:44;15.57;;;5.53;;
34565;SDS011;20803;42.676;26.348;2022-07-29T06:15:09;15.20;;;7.73;;
34565;SDS011;20803;42.676;26.348;2022-07-29T06:17:35;14.00;;;5.50;;
34565;SDS011;20803;42.676;26.348;2022-07-29T06:20:01;10.60;;;6.23;;
34565;SDS011;20803;42.676;26.348;2022-07-29T06:22:26;7.67;;;4.43;;
34565;SDS011;20803;42.676;26.348;2022-07-29T06:24:52;3.37;;;3.07;;
34565;SDS011;20803;42.676;26.348;2022-07-29T06:27:17;10.70;;;4.80;;
34565;SDS011;20803;42.676;26.348;2022-07-29T06:29:42;13.20;;;6.67;;
34565;SDS011;20803;42.676;26.348;2022-07-29T06:32:08;6.30;;;3.50;;
34565;SDS011;20803;42.676;26.348;2022-07-29T06:34:34;4.33;;;3.50;;
34565;SDS011;20803;42.676;26.348;2022-07-29T06:37:00;7.07;;;4.13;;
34565;SDS011;20803;42.676;26.348;2022-07-29T06:39:30;8.40;;;3.30;;
34565;SDS011;20803;42.676;26.348;2022-07-29T06:41:55;4.00;;;3.60;;
34565;SDS011;20803;42.676;26.348;2022-07-29T06:44:21;4.07;;;3.13;;
34565;SDS011;20803;42.676;26.348;2022-07-29T06:46:46;6.10;;;2.97;;
34565;SDS011;20803;42.676;26.348;2022-07-29T06:49:14;4.97;;;3.47;;
34565;SDS011;20803;42.676;26.348;2022-07-29T06:51:40;4.80;;;3.60;;
34565;SDS011;20803;42.676;26.348;2022-07-29T06:54:05;5.30;;;3.23;;
34565;SDS011;20803;42.676;26.348;2022-07-29T06:56:31;3.80;;;3.50;;
34565;SDS011;20803;42.676;26.348;2022-07-29T06:58:58;4.27;;;3.33;;
34565;SDS011;20803;42.676;26.348;2022-07-29T07:01:24;4.87;;;3.30;;
34565;SDS011;20803;42.676;26.348;2022-07-29T07:03:49;3.20;;;3.00;;
34565;SDS011;20803;42.676;26.348;2022-07-29T07:06:14;4.43;;;3.37;;
34565;SDS011;20803;42.676;26.348;2022-07-29T07:08:40;3.90;;;3.30;;
34565;SDS011;20803;42.676;26.348;2022-07-29T07:11:06;6.80;;;3.87;;
34565;SDS011;20803;42.676;26.348;2022-07-29T07:13:32;6.07;;;3.70;;
34565;SDS011;20803;42.676;26.348;2022-07-29T07:15:59;7.40;;;4.73;;
34565;SDS011;20803;42.676;26.348;2022-07-29T07:18:25;3.90;;;3.60;;
34565;SDS011;20803;42.676;26.348;2022-07-29T07:20:51;6.43;;;4.00;;
34565;SDS011;20803;42.676;26.348;2022-07-29T07:23:16;4.93;;;3.47;;
34565;SDS011;20803;42.676;26.348;2022-07-29T07:25:42;4.37;;;3.97;;
34565;SDS011;20803;42.676;26.348;2022-07-29T07:28:07;10.70;;;4.00;;
34565;SDS011;20803;42.676;26.348;2022-07-29T07:30:33;4.20;;;3.77;;
34565;SDS011;20803;42.676;26.348;2022-07-29T07:32:59;3.83;;;3.43;;
34565;SDS011;20803;42.676;26.348;2022-07-29T07:35:25;6.83;;;4.10;;
34565;SDS011;20803;42.676;26.348;2022-07-29T07:37:52;3.83;;;3.53;;
34565;SDS011;20803;42.676;26.348;2022-07-29T07:40:18;9.43;;;3.50;;
34565;SDS011;20803;42.676;26.348;2022-07-29T07:42:43;3.90;;;3.50;;
34565;SDS011;20803;42.676;26.348;2022-07-29T07:45:09;4.23;;;3.40;;
34565;SDS011;20803;42.676;26.348;2022-07-29T07:47:36;4.57;;;3.90;;
34565;SDS011;20803;42.676;26.348;2022-07-29T07:50:03;5.50;;;3.87;;
34565;SDS011;20803;42.676;26.348;2022-07-29T07:52:30;6.03;;;3.70;;
34565;SDS011;20803;42.676;26.348;2022-07-29T07:54:55;6.30;;;3.83;;
34565;SDS011;20803;42.676;26.348;2022-07-29T07:57:20;7.33;;;3.53;;
34565;SDS011;20803;42.676;26.348;2022-07-29T07:59:46;5.20;;;3.43;;
34565;SDS011;20803;42.676;26.348;2022-07-29T08:02:11;8.17;;;4.00;;
34565;SDS011;20803;42.676;26.348;2022-07-29T08:04:37;4.20;;;3.30;;
34565;SDS011;20803;42.676;26.348;2022-07-29T08:07:05;4.77;;;3.43;;
34565;SDS011;20803;42.676;26.348;2022-07-29T08:09:31;6.57;;;3.40;;
34565;SDS011;20803;42.676;26.348;2022-07-29T08:11:57;3.93;;;3.53;;
34565;SDS011;20803;42.676;26.348;2022-07-29T08:14:24;4.03;;;3.63;;
34565;SDS011;20803;42.676;26.348;2022-07-29T08:16:49;5.57;;;3.63;;
34565;SDS011;20803;42.676;26.348;2022-07-29T08:19:15;3.80;;;3.40;;
34565;SDS011;20803;42.676;26.348;2022-07-29T08:21:41;3.70;;;3.40;;
34565;SDS011;20803;42.676;26.348;2022-07-29T08:24:06;3.90;;;3.60;;
34565;SDS011;20803;42.676;26.348;2022-07-29T08:26:50;3.40;;;3.10;;
34565;SDS011;20803;42.676;26.348;2022-07-29T08:29:16;4.23;;;3.83;;
34565;SDS011;20803;42.676;26.348;2022-07-29T08:31:41;6.77;;;3.53;;
34565;SDS011;20803;42.676;26.348;2022-07-29T08:34:08;5.17;;;3.33;;
34565;SDS011;20803;42.676;26.348;2022-07-29T08:36:33;7.13;;;3.50;;
34565;SDS011;20803;42.676;26.348;2022-07-29T08:38:59;4.13;;;3.77;;
34565;SDS011;20803;42.676;26.348;2022-07-29T08:41:25;6.27;;;4.20;;
34565;SDS011;20803;42.676;26.348;2022-07-29T08:43:52;9.30;;;3.90;;
34565;SDS011;20803;42.676;26.348;2022-07-29T08:46:18;6.77;;;3.70;;
34565;SDS011;20803;42.676;26.348;2022-07-29T08:48:44;9.20;;;3.77;;
34565;SDS011;20803;42.676;26.348;2022-07-29T08:51:17;4.33;;;3.53;;
34565;SDS011;20803;42.676;26.348;2022-07-29T08:53:45;8.83;;;3.23;;
34565;SDS011;20803;42.676;26.348;2022-07-29T08:56:13;6.87;;;3.47;;
34565;SDS011;20803;42.676;26.348;2022-07-29T08:58:41;4.67;;;4.10;;
34565;SDS011;20803;42.676;26.348;2022-07-29T09:01:07;3.90;;;3.50;;
34565;SDS011;20803;42.676;26.348;2022-07-29T09:03:35;7.10;;;3.63;;
34565;SDS011;20803;42.676;26.348;2022-07-29T09:06:04;6.60;;;3.37;;
34565;SDS011;20803;42.676;26.348;2022-07-29T09:08:33;8.33;;;3.60;;
34565;SDS011;20803;42.676;26.348;2022-07-29T09:11:00;5.27;;;3.70;;
34565;SDS011;20803;42.676;26.348;2022-07-29T09:13:26;5.10;;;3.43;;
34565;SDS011;20803;42.676;26.348;2022-07-29T09:15:52;4.13;;;3.60;;
34565;SDS011;20803;42.676;26.348;2022-07-29T09:18:33;9.20;;;3.80;;
34565;SDS011;20803;42.676;26.348;2022-07-29T09:21:13;4.70;;;3.43;;
34565;SDS011;20803;42.676;26.348;2022-07-29T09:24:09;4.83;;;3.53;;
34565;SDS011;20803;42.676;26.348;2022-07-29T09:26:43;5.90;;;3.60;;
34565;SDS011;20803;42.676;26.348;2022-07-29T09:29:15;6.30;;;3.47;;
34565;SDS011;20803;42.676;26.348;2022-07-29T09:31:43;5.03;;;4.03;;
34565;SDS011;20803;42.676;26.348;2022-07-29T09:34:30;5.53;;;3.80;;
34565;SDS011;20803;42.676;26.348;2022-07-29T09:36:56;6.90;;;3.97;;
34565;SDS011;20803;42.676;26.348;2022-07-29T09:41:58;4.70;;;4.07;;
34565;SDS011;20803;42.676;26.348;2022-07-29T09:44:25;5.73;;;3.50;;
34565;SDS011;20803;42.676;26.348;2022-07-29T09:49:34;5.17;;;3.20;;
34565;SDS011;20803;42.676;26.348;2022-07-29T09:52:04;5.33;;;3.60;;
34565;SDS011;20803;42.676;26.348;2022-07-29T09:54:31;7.87;;;3.97;;
34565;SDS011;20803;42.676;26.348;2022-07-29T09:57:07;5.43;;;3.67;;
34565;SDS011;20803;42.676;26.348;2022-07-29T09:59:37;6.50;;;3.80;;
34565;SDS011;20803;42.676;26.348;2022-07-29T10:02:10;5.33;;;3.70;;
34565;SDS011;20803;42.676;26.348;2022-07-29T10:04:38;6.63;;;3.80;;
34565;SDS011;20803;42.676;26.348;2022-07-29T10:07:07;6.60;;;3.97;;
34565;SDS011;20803;42.676;26.348;2022-07-29T10:09:34;3.77;;;3.13;;
34565;SDS011;20803;42.676;26.348;2022-07-29T10:14:34;5.87;;;3.57;;
34565;SDS011;20803;42.676;26.348;2022-07-29T10:17:01;5.00;;;3.67;;
34565;SDS011;20803;42.676;26.348;2022-07-29T10:19:28;6.63;;;4.00;;
34565;SDS011;20803;42.676;26.348;2022-07-29T10:21:56;5.57;;;3.73;;
34565;SDS011;20803;42.676;26.348;2022-07-29T10:24:24;4.00;;;3.60;;
34565;SDS011;20803;42.676;26.348;2022-07-29T10:26:51;3.73;;;3.37;;
34565;SDS011;20803;42.676;26.348;2022-07-29T10:29:19;5.13;;;3.70;;
34565;SDS011;20803;42.676;26.348;2022-07-29T10:32:08;5.27;;;3.47;;
34565;SDS011;20803;42.676;26.348;2022-07-29T10:38:21;5.13;;;3.50;;
34565;SDS011;20803;42.676;26.348;2022-07-29T10:44:04;5.97;;;4.17;;
34565;SDS011;20803;42.676;26.348;2022-07-29T10:46:36;4.50;;;3.67;;
34565;SDS011;20803;42.676;26.348;2022-07-29T10:59:44;5.10;;;3.60;;
34565;SDS011;20803;42.676;26.348;2022-07-29T11:07:34;4.20;;;3.60;;
34565;SDS011;20803;42.676;26.348;2022-07-29T11:15:02;3.87;;;3.57;;
34565;SDS011;20803;42.676;26.348;2022-07-29T11:17:30;8.80;;;3.90;;
34565;SDS011;20803;42.676;26.348;2022-07-29T11:23:26;7.57;;;3.67;;
34565;SDS011;20803;42.676;26.348;2022-07-29T11:28:34;4.13;;;3.60;;
34565;SDS011;20803;42.676;26.348;2022-07-29T11:31:31;4.50;;;3.53;;
34565;SDS011;20803;42.676;26.348;2022-07-29T11:39:33;5.07;;;3.57;;
34565;SDS011;20803;42.676;26.348;2022-07-29T11:47:35;5.00;;;3.77;;
34565;SDS011;20803;42.676;26.348;2022-07-29T11:50:12;6.07;;;3.57;;
34565;SDS011;20803;42.676;26.348;2022-07-29T11:52:40;10.47;;;3.60;;
34565;SDS011;20803;42.676;26.348;2022-07-29T11:55:15;5.37;;;3.87;;
34565;SDS011;20803;42.676;26.348;2022-07-29T11:57:52;4.00;;;3.53;;
34565;SDS011;20803;42.676;26.348;2022-07-29T12:00:23;4.43;;;3.30;;
34565;SDS011;20803;42.676;26.348;2022-07-29T12:02:54;4.83;;;3.30;;
34565;SDS011;20803;42.676;26.348;2022-07-29T12:05:20;6.13;;;4.57;;
34565;SDS011;20803;42.676;26.348;2022-07-29T12:07:47;4.67;;;3.77;;
34565;SDS011;20803;42.676;26.348;2022-07-29T12:10:13;3.63;;;3.33;;
34565;SDS011;20803;42.676;26.348;2022-07-29T12:12:39;6.20;;;3.83;;
34565;SDS011;20803;42.676;26.348;2022-07-29T12:15:15;6.97;;;3.80;;
34565;SDS011;20803;42.676;26.348;2022-07-29T12:17:42;3.70;;;3.40;;
34565;SDS011;20803;42.676;26.348;2022-07-29T12:20:08;3.73;;;3.43;;
34565;SDS011;20803;42.676;26.348;2022-07-29T12:22:38;4.77;;;3.20;;
34565;SDS011;20803;42.676;26.348;2022-07-29T12:27:37;6.83;;;3.60;;
34565;SDS011;20803;42.676;26.348;2022-07-29T12:30:06;4.67;;;3.80;;
34565;SDS011;20803;42.676;26.348;2022-07-29T12:32:37;4.93;;;3.10;;
34565;SDS011;20803;42.676;26.348;2022-07-29T12:35:13;5.00;;;3.40;;
34565;SDS011;20803;42.676;26.348;2022-07-29T12:37:40;4.20;;;3.20;;
34565;SDS011;20803;42.676;26.348;2022-07-29T12:40:08;6.87;;;3.77;;
34565;SDS011;20803;42.676;26.348;2022-07-29T12:42:35;4.53;;;3.37;;
34565;SDS011;20803;42.676;26.348;2022-07-29T12:45:02;3.83;;;3.47;;
34565;SDS011;20803;42.676;26.348;2022-07-29T12:47:29;10.03;;;4.30;;
34565;SDS011;20803;42.676;26.348;2022-07-29T12:50:11;3.97;;;3.57;;
34565;SDS011;20803;42.676;26.348;2022-07-29T12:52:40;3.90;;;3.50;;
34565;SDS011;20803;42.676;26.348;2022-07-29T12:55:05;5.30;;;3.70;;
34565;SDS011;20803;42.676;26.348;2022-07-29T12:57:32;4.17;;;3.77;;
34565;SDS011;20803;42.676;26.348;2022-07-29T13:00:10;5.03;;;3.43;;
34565;SDS011;20803;42.676;26.348;2022-07-29T13:02:38;5.27;;;3.80;;
34565;SDS011;20803;42.676;26.348;2022-07-29T13:05:05;3.80;;;3.47;;
34565;SDS011;20803;42.676;26.348;2022-07-29T13:07:33;3.80;;;3.40;;
34565;SDS011;20803;42.676;26.348;2022-07-29T13:10:11;5.10;;;3.40;;
34565;SDS011;20803;42.676;26.348;2022-07-29T13:12:39;5.67;;;3.80;;
34565;SDS011;20803;42.676;26.348;2022-07-29T13:15:29;4.03;;;3.57;;
34565;SDS011;20803;42.676;26.348;2022-07-29T13:17:55;3.97;;;3.50;;
34565;SDS011;20803;42.676;26.348;2022-07-29T13:20:23;7.13;;;3.70;;
34565;SDS011;20803;42.676;26.348;2022-07-29T13:22:50;4.90;;;3.30;;
34565;SDS011;20803;42.676;26.348;2022-07-29T13:25:22;5.63;;;3.93;;
34565;SDS011;20803;42.676;26.348;2022-07-29T13:27:52;5.30;;;3.23;;
34565;SDS011;20803;42.676;26.348;2022-07-29T13:30:19;6.93;;;3.93;;
34565;SDS011;20803;42.676;26.348;2022-07-29T13:32:46;5.43;;;3.53;;
34565;SDS011;20803;42.676;26.348;2022-07-29T13:35:12;5.73;;;4.00;;
34565;SDS011;20803;42.676;26.348;2022-07-29T13:37:38;4.30;;;3.90;;
34565;SDS011;20803;42.676;26.348;2022-07-29T13:40:08;6.20;;;3.60;;
34565;SDS011;20803;42.676;26.348;2022-07-29T13:42:35;4.60;;;3.70;;
34565;SDS011;20803;42.676;26.348;2022-07-29T13:45:01;6.67;;;3.43;;
34565;SDS011;20803;42.676;26.348;2022-07-29T13:47:28;3.90;;;3.60;;
34565;SDS011;20803;42.676;26.348;2022-07-29T13:49:54;7.57;;;4.00;;
34565;SDS011;20803;42.676;26.348;2022-07-29T13:52:20;4.10;;;3.70;;
34565;SDS011;20803;42.676;26.348;2022-07-29T13:54:45;7.27;;;3.90;;
34565;SDS011;20803;42.676;26.348;2022-07-29T13:57:12;7.00;;;4.40;;
34565;SDS011;20803;42.676;26.348;2022-07-29T13:59:38;3.87;;;3.57;;
34565;SDS011;20803;42.676;26.348;2022-07-29T14:02:05;4.47;;;3.60;;
34565;SDS011;20803;42.676;26.348;2022-07-29T14:04:30;5.33;;;3.40;;
34565;SDS011;20803;42.676;26.348;2022-07-29T14:06:56;5.93;;;3.10;;
34565;SDS011;20803;42.676;26.348;2022-07-29T14:09:22;5.30;;;3.40;;
34565;SDS011;20803;42.676;26.348;2022-07-29T14:11:47;3.80;;;3.50;;
34565;SDS011;20803;42.676;26.348;2022-07-29T14:14:15;6.20;;;3.73;;
34565;SDS011;20803;42.676;26.348;2022-07-29T14:16:40;6.77;;;3.50;;
34565;SDS011;20803;42.676;26.348;2022-07-29T14:19:06;4.93;;;3.20;;
34565;SDS011;20803;42.676;26.348;2022-07-29T14:21:31;4.23;;;3.30;;
34565;SDS011;20803;42.676;26.348;2022-07-29T14:23:57;6.37;;;3.60;;
34565;SDS011;20803;42.676;26.348;2022-07-29T14:26:23;4.90;;;3.33;;
34565;SDS011;20803;42.676;26.348;2022-07-29T14:28:48;3.67;;;3.33;;
34565;SDS011;20803;42.676;26.348;2022-07-29T14:31:14;5.67;;;3.33;;
34565;SDS011;20803;42.676;26.348;2022-07-29T14:33:40;5.47;;;3.17;;
34565;SDS011;20803;42.676;26.348;2022-07-29T14:36:05;5.30;;;3.43;;
34565;SDS011;20803;42.676;26.348;2022-07-29T14:38:31;7.33;;;3.80;;
34565;SDS011;20803;42.676;26.348;2022-07-29T14:40:57;6.80;;;3.60;;
34565;SDS011;20803;42.676;26.348;2022-07-29T14:43:22;3.77;;;3.40;;
34565;SDS011;20803;42.676;26.348;2022-07-29T14:45:48;4.53;;;3.47;;
34565;SDS011;20803;42.676;26.348;2022-07-29T14:48:13;4.70;;;3.60;;
34565;SDS011;20803;42.676;26.348;2022-07-29T14:50:39;5.37;;;3.47;;
34565;SDS011;20803;42.676;26.348;2022-07-29T14:53:05;11.97;;;3.73;;
34565;SDS011;20803;42.676;26.348;2022-07-29T14:55:30;4.67;;;3.40;;
34565;SDS011;20803;42.676;26.348;2022-07-29T14:57:56;6.40;;;3.40;;
34565;SDS011;20803;42.676;26.348;2022-07-29T15:00:21;8.40;;;3.87;;
34565;SDS011;20803;42.676;26.348;2022-07-29T15:02:47;4.80;;;3.20;;
34565;SDS011;20803;42.676;26.348;2022-07-29T15:05:13;6.37;;;3.87;;
34565;SDS011;20803;42.676;26.348;2022-07-29T15:07:39;6.93;;;3.50;;
34565;SDS011;20803;42.676;26.348;2022-07-29T15:10:05;4.87;;;3.83;;
34565;SDS011;20803;42.676;26.348;2022-07-29T15:12:31;5.63;;;4.10;;
34565;SDS011;20803;42.676;26.348;2022-07-29T15:14:56;6.10;;;3.63;;
34565;SDS011;20803;42.676;26.348;2022-07-29T15:17:22;6.73;;;4.00;;
34565;SDS011;20803;42.676;26.348;2022-07-29T15:19:48;7.90;;;3.73;;
34565;SDS011;20803;42.676;26.348;2022-07-29T15:22:13;5.63;;;3.80;;
34565;SDS011;20803;42.676;26.348;2022-07-29T15:24:38;6.67;;;3.80;;
34565;SDS011;20803;42.676;26.348;2022-07-29T15:27:04;9.50;;;3.87;;
34565;SDS011;20803;42.676;26.348;2022-07-29T15:29:29;5.47;;;4.00;;
34565;SDS011;20803;42.676;26.348;2022-07-29T15:31:55;4.37;;;3.97;;
34565;SDS011;20803;42.676;26.348;2022-07-29T15:34:20;4.47;;;4.07;;
34565;SDS011;20803;42.676;26.348;2022-07-29T15:36:48;8.27;;;3.73;;
34565;SDS011;20803;42.676;26.348;2022-07-29T15:39:14;4.87;;;3.80;;
34565;SDS011;20803;42.676;26.348;2022-07-29T15:41:39;5.47;;;3.50;;
34565;SDS011;20803;42.676;26.348;2022-07-29T15:44:05;6.27;;;3.67;;
34565;SDS011;20803;42.676;26.348;2022-07-29T15:46:30;5.00;;;3.70;;
34565;SDS011;20803;42.676;26.348;2022-07-29T15:49:14;6.97;;;3.80;;